41VA weather

Brown's Island Heliport
Richmond, Virginia, United States

Public forecast

Using degrees Fahrenheit for public forecast. Weather courtesy of forecast.io.

Closest aviation weather report (METAR) to Brown's Island Heliport

Closest report is Richmond International Airport, 6.2 nm (11.4 km) ESE. Retrieved 2019/10/18 06:54 UTC (22 minutes ago):

KRIC 180654Z 00000KT 10SM CLR 06/02 A2989 RMK AO2 SLP125 T00560022

Closest aviation forecast (TAF) to Brown's Island Heliport

Closest forecast is Richmond International Airport, 6.2 nm (11.4 km) ESE. Retrieved 2019/10/18 06:27 UTC (49 minutes ago):

TAF KRIC 180525Z 1806/1906 29008KT P6SM SKC FM181400 32006KT P6SM SKC FM182300 VRB03KT P6SM SKC